sensor_id;sensor_type;location;lat;lon;timestamp;P1;durP1;ratioP1;P2;durP2;ratioP2
22468;SDS011;11401;50.792;4.352;2023-05-01T00:00:52;2.22;;;2.03;;
22468;SDS011;11401;50.792;4.352;2023-05-01T00:03:19;4.40;;;2.20;;
22468;SDS011;11401;50.792;4.352;2023-05-01T00:05:46;4.18;;;2.40;;
22468;SDS011;11401;50.792;4.352;2023-05-01T00:08:14;2.20;;;1.83;;
22468;SDS011;11401;50.792;4.352;2023-05-01T00:10:41;2.60;;;2.17;;
22468;SDS011;11401;50.792;4.352;2023-05-01T00:13:08;2.45;;;2.20;;
22468;SDS011;11401;50.792;4.352;2023-05-01T00:15:35;5.13;;;2.05;;
22468;SDS011;11401;50.792;4.352;2023-05-01T00:18:02;4.65;;;2.42;;
22468;SDS011;11401;50.792;4.352;2023-05-01T00:20:29;3.45;;;2.58;;
22468;SDS011;11401;50.792;4.352;2023-05-01T00:22:56;2.90;;;2.08;;
22468;SDS011;11401;50.792;4.352;2023-05-01T00:25:23;2.17;;;2.00;;
22468;SDS011;11401;50.792;4.352;2023-05-01T00:27:50;4.90;;;2.25;;
22468;SDS011;11401;50.792;4.352;2023-05-01T00:30:17;3.65;;;2.60;;
22468;SDS011;11401;50.792;4.352;2023-05-01T00:32:44;2.70;;;2.50;;
22468;SDS011;11401;50.792;4.352;2023-05-01T00:35:12;3.08;;;1.98;;
22468;SDS011;11401;50.792;4.352;2023-05-01T00:37:39;7.03;;;2.00;;
22468;SDS011;11401;50.792;4.352;2023-05-01T00:40:06;5.32;;;1.95;;
22468;SDS011;11401;50.792;4.352;2023-05-01T00:42:34;2.90;;;1.98;;
22468;SDS011;11401;50.792;4.352;2023-05-01T00:45:02;4.50;;;2.10;;
22468;SDS011;11401;50.792;4.352;2023-05-01T00:47:29;6.70;;;2.10;;
22468;SDS011;11401;50.792;4.352;2023-05-01T00:49:56;8.48;;;1.98;;
22468;SDS011;11401;50.792;4.352;2023-05-01T00:52:24;3.10;;;2.20;;
22468;SDS011;11401;50.792;4.352;2023-05-01T00:54:51;4.03;;;2.60;;
22468;SDS011;11401;50.792;4.352;2023-05-01T00:57:20;2.15;;;1.95;;
22468;SDS011;11401;50.792;4.352;2023-05-01T00:59:47;3.28;;;2.30;;
22468;SDS011;11401;50.792;4.352;2023-05-01T01:02:15;3.22;;;2.33;;
22468;SDS011;11401;50.792;4.352;2023-05-01T01:04:43;2.55;;;1.80;;
22468;SDS011;11401;50.792;4.352;2023-05-01T01:12:31;2.42;;;2.15;;
22468;SDS011;11401;50.792;4.352;2023-05-01T01:15:29;2.30;;;2.10;;
22468;SDS011;11401;50.792;4.352;2023-05-01T01:21:06;2.10;;;2.00;;
22468;SDS011;11401;50.792;4.352;2023-05-01T01:35:00;3.47;;;2.25;;
22468;SDS011;11401;50.792;4.352;2023-05-01T01:37:40;4.10;;;2.00;;
22468;SDS011;11401;50.792;4.352;2023-05-01T01:40:18;4.07;;;2.50;;
22468;SDS011;11401;50.792;4.352;2023-05-01T01:42:54;4.47;;;2.40;;
22468;SDS011;11401;50.792;4.352;2023-05-01T01:45:38;1.90;;;1.73;;
22468;SDS011;11401;50.792;4.352;2023-05-01T01:48:07;2.63;;;2.25;;
22468;SDS011;11401;50.792;4.352;2023-05-01T01:50:38;4.13;;;2.40;;
22468;SDS011;11401;50.792;4.352;2023-05-01T01:53:08;2.53;;;2.10;;
22468;SDS011;11401;50.792;4.352;2023-05-01T01:55:40;4.47;;;1.90;;
22468;SDS011;11401;50.792;4.352;2023-05-01T01:58:10;2.75;;;2.17;;
22468;SDS011;11401;50.792;4.352;2023-05-01T02:00:38;2.53;;;2.33;;
22468;SDS011;11401;50.792;4.352;2023-05-01T02:03:07;3.72;;;2.50;;
22468;SDS011;11401;50.792;4.352;2023-05-01T02:05:37;3.35;;;2.08;;
22468;SDS011;11401;50.792;4.352;2023-05-01T02:08:05;2.88;;;2.08;;
22468;SDS011;11401;50.792;4.352;2023-05-01T02:10:35;4.18;;;2.42;;
22468;SDS011;11401;50.792;4.352;2023-05-01T02:13:03;5.15;;;2.30;;
22468;SDS011;11401;50.792;4.352;2023-05-01T02:15:31;3.08;;;2.28;;
22468;SDS011;11401;50.792;4.352;2023-05-01T02:18:00;2.60;;;2.40;;
22468;SDS011;11401;50.792;4.352;2023-05-01T02:20:30;2.60;;;2.40;;
22468;SDS011;11401;50.792;4.352;2023-05-01T02:22:58;3.58;;;2.33;;
22468;SDS011;11401;50.792;4.352;2023-05-01T02:25:26;2.05;;;1.85;;
22468;SDS011;11401;50.792;4.352;2023-05-01T02:28:01;4.78;;;2.20;;
22468;SDS011;11401;50.792;4.352;2023-05-01T02:30:29;3.55;;;2.33;;
22468;SDS011;11401;50.792;4.352;2023-05-01T02:32:57;2.40;;;2.20;;
22468;SDS011;11401;50.792;4.352;2023-05-01T02:35:24;3.55;;;2.08;;
22468;SDS011;11401;50.792;4.352;2023-05-01T02:37:52;7.43;;;2.40;;
22468;SDS011;11401;50.792;4.352;2023-05-01T02:40:19;3.72;;;2.08;;
22468;SDS011;11401;50.792;4.352;2023-05-01T02:42:46;2.53;;;2.10;;
22468;SDS011;11401;50.792;4.352;2023-05-01T02:45:18;4.43;;;2.25;;
22468;SDS011;11401;50.792;4.352;2023-05-01T02:47:49;2.92;;;2.00;;
22468;SDS011;11401;50.792;4.352;2023-05-01T02:50:21;2.80;;;2.08;;
22468;SDS011;11401;50.792;4.352;2023-05-01T02:52:49;3.28;;;2.20;;
22468;SDS011;11401;50.792;4.352;2023-05-01T02:55:28;3.42;;;2.10;;
22468;SDS011;11401;50.792;4.352;2023-05-01T02:57:57;3.15;;;2.08;;
22468;SDS011;11401;50.792;4.352;2023-05-01T03:00:25;4.43;;;2.35;;
22468;SDS011;11401;50.792;4.352;2023-05-01T03:02:53;3.88;;;2.33;;
22468;SDS011;11401;50.792;4.352;2023-05-01T03:05:20;2.58;;;2.38;;
22468;SDS011;11401;50.792;4.352;2023-05-01T03:07:47;2.72;;;2.15;;
22468;SDS011;11401;50.792;4.352;2023-05-01T03:10:14;3.10;;;2.53;;
22468;SDS011;11401;50.792;4.352;2023-05-01T03:12:41;5.07;;;2.35;;
22468;SDS011;11401;50.792;4.352;2023-05-01T03:15:09;3.50;;;2.15;;
22468;SDS011;11401;50.792;4.352;2023-05-01T03:17:39;2.30;;;1.88;;
22468;SDS011;11401;50.792;4.352;2023-05-01T03:20:07;4.03;;;2.30;;
22468;SDS011;11401;50.792;4.352;2023-05-01T03:22:36;3.08;;;2.05;;
22468;SDS011;11401;50.792;4.352;2023-05-01T03:25:03;2.53;;;2.20;;
22468;SDS011;11401;50.792;4.352;2023-05-01T03:27:31;3.15;;;2.00;;
22468;SDS011;11401;50.792;4.352;2023-05-01T03:29:58;2.53;;;2.28;;
22468;SDS011;11401;50.792;4.352;2023-05-01T03:32:25;2.15;;;2.05;;
22468;SDS011;11401;50.792;4.352;2023-05-01T03:34:55;2.50;;;2.30;;
22468;SDS011;11401;50.792;4.352;2023-05-01T03:37:22;2.92;;;2.20;;
22468;SDS011;11401;50.792;4.352;2023-05-01T03:39:50;2.28;;;2.10;;
22468;SDS011;11401;50.792;4.352;2023-05-01T03:42:40;4.68;;;2.80;;
22468;SDS011;11401;50.792;4.352;2023-05-01T03:45:16;4.20;;;2.40;;
22468;SDS011;11401;50.792;4.352;2023-05-01T03:47:43;3.25;;;2.20;;
22468;SDS011;11401;50.792;4.352;2023-05-01T03:50:10;3.83;;;2.53;;
22468;SDS011;11401;50.792;4.352;2023-05-01T03:52:39;3.42;;;2.17;;
22468;SDS011;11401;50.792;4.352;2023-05-01T03:55:07;4.75;;;2.72;;
22468;SDS011;11401;50.792;4.352;2023-05-01T03:57:39;2.90;;;2.70;;
22468;SDS011;11401;50.792;4.352;2023-05-01T04:00:06;2.22;;;2.00;;
22468;SDS011;11401;50.792;4.352;2023-05-01T04:02:40;3.70;;;2.45;;
22468;SDS011;11401;50.792;4.352;2023-05-01T04:05:11;2.40;;;2.13;;
22468;SDS011;11401;50.792;4.352;2023-05-01T04:07:42;4.45;;;2.53;;
22468;SDS011;11401;50.792;4.352;2023-05-01T04:10:10;2.83;;;2.50;;
22468;SDS011;11401;50.792;4.352;2023-05-01T04:12:42;4.38;;;2.40;;
22468;SDS011;11401;50.792;4.352;2023-05-01T04:15:10;5.50;;;2.85;;
22468;SDS011;11401;50.792;4.352;2023-05-01T04:17:40;3.42;;;2.30;;
22468;SDS011;11401;50.792;4.352;2023-05-01T04:20:09;3.67;;;2.85;;
22468;SDS011;11401;50.792;4.352;2023-05-01T04:22:37;4.35;;;2.70;;
22468;SDS011;11401;50.792;4.352;2023-05-01T04:25:04;2.53;;;2.30;;
22468;SDS011;11401;50.792;4.352;2023-05-01T04:27:31;3.22;;;2.65;;
22468;SDS011;11401;50.792;4.352;2023-05-01T04:29:58;3.00;;;2.53;;
22468;SDS011;11401;50.792;4.352;2023-05-01T04:32:27;4.22;;;3.05;;
22468;SDS011;11401;50.792;4.352;2023-05-01T04:34:54;3.25;;;2.72;;
22468;SDS011;11401;50.792;4.352;2023-05-01T04:37:21;5.47;;;2.60;;
22468;SDS011;11401;50.792;4.352;2023-05-01T04:39:48;4.55;;;2.60;;
22468;SDS011;11401;50.792;4.352;2023-05-01T04:42:19;3.45;;;3.10;;
22468;SDS011;11401;50.792;4.352;2023-05-01T04:44:46;5.95;;;2.78;;
22468;SDS011;11401;50.792;4.352;2023-05-01T04:47:13;4.50;;;2.60;;
22468;SDS011;11401;50.792;4.352;2023-05-01T04:49:40;4.07;;;3.05;;
22468;SDS011;11401;50.792;4.352;2023-05-01T04:52:07;3.03;;;2.83;;
22468;SDS011;11401;50.792;4.352;2023-05-01T04:54:50;4.22;;;2.75;;
22468;SDS011;11401;50.792;4.352;2023-05-01T04:57:21;3.13;;;2.83;;
22468;SDS011;11401;50.792;4.352;2023-05-01T04:59:48;2.47;;;2.28;;
22468;SDS011;11401;50.792;4.352;2023-05-01T05:02:15;3.53;;;2.88;;
22468;SDS011;11401;50.792;4.352;2023-05-01T05:04:42;4.68;;;3.20;;
22468;SDS011;11401;50.792;4.352;2023-05-01T05:07:09;3.97;;;2.63;;
22468;SDS011;11401;50.792;4.352;2023-05-01T05:09:54;4.97;;;2.83;;
22468;SDS011;11401;50.792;4.352;2023-05-01T05:12:22;3.67;;;2.60;;
22468;SDS011;11401;50.792;4.352;2023-05-01T05:14:49;3.97;;;3.03;;
22468;SDS011;11401;50.792;4.352;2023-05-01T05:17:17;4.53;;;3.05;;
22468;SDS011;11401;50.792;4.352;2023-05-01T05:19:44;3.78;;;2.63;;
22468;SDS011;11401;50.792;4.352;2023-05-01T05:22:11;4.88;;;3.00;;
22468;SDS011;11401;50.792;4.352;2023-05-01T05:24:58;4.57;;;3.03;;
22468;SDS011;11401;50.792;4.352;2023-05-01T05:27:29;3.15;;;2.55;;
22468;SDS011;11401;50.792;4.352;2023-05-01T05:30:05;3.25;;;2.95;;
22468;SDS011;11401;50.792;4.352;2023-05-01T05:32:34;5.43;;;2.65;;
22468;SDS011;11401;50.792;4.352;2023-05-01T05:35:01;3.17;;;2.85;;
22468;SDS011;11401;50.792;4.352;2023-05-01T05:37:29;3.83;;;2.90;;
22468;SDS011;11401;50.792;4.352;2023-05-01T05:39:56;5.47;;;3.38;;
22468;SDS011;11401;50.792;4.352;2023-05-01T05:42:24;7.50;;;3.58;;
22468;SDS011;11401;50.792;4.352;2023-05-01T05:44:51;3.65;;;3.28;;
22468;SDS011;11401;50.792;4.352;2023-05-01T05:47:18;4.25;;;3.92;;
22468;SDS011;11401;50.792;4.352;2023-05-01T05:49:45;3.97;;;3.67;;
22468;SDS011;11401;50.792;4.352;2023-05-01T05:52:12;4.50;;;3.97;;
22468;SDS011;11401;50.792;4.352;2023-05-01T05:54:40;3.95;;;3.58;;
22468;SDS011;11401;50.792;4.352;2023-05-01T05:57:07;6.10;;;3.97;;
22468;SDS011;11401;50.792;4.352;2023-05-01T05:59:39;5.40;;;3.90;;
22468;SDS011;11401;50.792;4.352;2023-05-01T06:02:08;7.40;;;4.50;;
22468;SDS011;11401;50.792;4.352;2023-05-01T06:04:35;5.43;;;4.45;;
22468;SDS011;11401;50.792;4.352;2023-05-01T06:07:02;5.18;;;4.78;;
22468;SDS011;11401;50.792;4.352;2023-05-01T06:09:29;4.50;;;4.10;;
22468;SDS011;11401;50.792;4.352;2023-05-01T06:11:56;6.57;;;5.50;;
22468;SDS011;11401;50.792;4.352;2023-05-01T06:14:24;5.72;;;4.65;;
22468;SDS011;11401;50.792;4.352;2023-05-01T06:16:51;6.60;;;4.47;;
22468;SDS011;11401;50.792;4.352;2023-05-01T06:19:18;6.43;;;5.18;;
22468;SDS011;11401;50.792;4.352;2023-05-01T06:21:50;6.57;;;5.20;;
22468;SDS011;11401;50.792;4.352;2023-05-01T06:24:17;10.00;;;5.30;;
22468;SDS011;11401;50.792;4.352;2023-05-01T06:26:47;9.00;;;5.45;;
22468;SDS011;11401;50.792;4.352;2023-05-01T06:29:14;7.03;;;5.45;;
22468;SDS011;11401;50.792;4.352;2023-05-01T06:31:42;6.13;;;4.97;;
22468;SDS011;11401;50.792;4.352;2023-05-01T06:34:10;5.70;;;5.03;;
22468;SDS011;11401;50.792;4.352;2023-05-01T06:36:48;7.13;;;5.57;;
22468;SDS011;11401;50.792;4.352;2023-05-01T06:39:15;5.60;;;5.10;;
22468;SDS011;11401;50.792;4.352;2023-05-01T06:41:44;6.43;;;5.78;;
22468;SDS011;11401;50.792;4.352;2023-05-01T06:44:13;6.53;;;5.78;;
22468;SDS011;11401;50.792;4.352;2023-05-01T06:46:41;6.50;;;5.35;;
22468;SDS011;11401;50.792;4.352;2023-05-01T06:49:08;6.90;;;6.20;;
22468;SDS011;11401;50.792;4.352;2023-05-01T06:51:35;19.23;;;7.72;;
22468;SDS011;11401;50.792;4.352;2023-05-01T06:54:02;6.50;;;5.93;;
22468;SDS011;11401;50.792;4.352;2023-05-01T06:56:30;7.93;;;6.38;;
22468;SDS011;11401;50.792;4.352;2023-05-01T06:58:58;8.23;;;7.03;;
22468;SDS011;11401;50.792;4.352;2023-05-01T07:01:25;8.32;;;6.72;;
22468;SDS011;11401;50.792;4.352;2023-05-01T07:03:52;8.63;;;7.80;;
22468;SDS011;11401;50.792;4.352;2023-05-01T07:06:19;9.23;;;7.63;;
22468;SDS011;11401;50.792;4.352;2023-05-01T07:08:46;7.20;;;6.50;;
22468;SDS011;11401;50.792;4.352;2023-05-01T07:11:14;9.20;;;8.27;;
22468;SDS011;11401;50.792;4.352;2023-05-01T07:13:41;9.93;;;8.65;;
22468;SDS011;11401;50.792;4.352;2023-05-01T07:16:08;11.00;;;9.75;;
22468;SDS011;11401;50.792;4.352;2023-05-01T07:18:35;9.77;;;8.70;;
22468;SDS011;11401;50.792;4.352;2023-05-01T07:21:03;15.10;;;10.90;;
22468;SDS011;11401;50.792;4.352;2023-05-01T07:23:31;11.90;;;10.23;;
22468;SDS011;11401;50.792;4.352;2023-05-01T07:25:57;12.60;;;10.80;;
22468;SDS011;11401;50.792;4.352;2023-05-01T07:28:24;13.85;;;12.07;;
22468;SDS011;11401;50.792;4.352;2023-05-01T07:30:51;9.23;;;7.95;;
22468;SDS011;11401;50.792;4.352;2023-05-01T07:33:18;13.32;;;11.77;;
22468;SDS011;11401;50.792;4.352;2023-05-01T07:35:45;10.75;;;9.50;;
22468;SDS011;11401;50.792;4.352;2023-05-01T07:38:14;15.90;;;12.77;;
22468;SDS011;11401;50.792;4.352;2023-05-01T07:40:42;15.50;;;13.00;;
22468;SDS011;11401;50.792;4.352;2023-05-01T07:43:09;18.95;;;14.32;;
22468;SDS011;11401;50.792;4.352;2023-05-01T07:45:37;17.75;;;14.55;;
22468;SDS011;11401;50.792;4.352;2023-05-01T07:48:05;22.13;;;13.77;;
22468;SDS011;11401;50.792;4.352;2023-05-01T07:50:32;18.77;;;13.27;;
22468;SDS011;11401;50.792;4.352;2023-05-01T07:52:59;19.17;;;15.93;;
22468;SDS011;11401;50.792;4.352;2023-05-01T07:55:26;18.85;;;15.93;;
22468;SDS011;11401;50.792;4.352;2023-05-01T07:57:53;19.85;;;16.23;;
22468;SDS011;11401;50.792;4.352;2023-05-01T08:00:21;17.77;;;14.80;;
22468;SDS011;11401;50.792;4.352;2023-05-01T08:02:49;21.23;;;16.77;;
22468;SDS011;11401;50.792;4.352;2023-05-01T08:05:17;23.35;;;15.63;;
22468;SDS011;11401;50.792;4.352;2023-05-01T08:07:44;22.30;;;16.80;;
22468;SDS011;11401;50.792;4.352;2023-05-01T08:10:11;17.63;;;14.75;;
22468;SDS011;11401;50.792;4.352;2023-05-01T08:12:38;13.55;;;11.18;;
22468;SDS011;11401;50.792;4.352;2023-05-01T08:15:05;22.15;;;17.33;;
22468;SDS011;11401;50.792;4.352;2023-05-01T08:17:36;18.20;;;14.63;;
22468;SDS011;11401;50.792;4.352;2023-05-01T08:20:04;26.02;;;19.40;;
22468;SDS011;11401;50.792;4.352;2023-05-01T08:22:31;18.85;;;15.15;;
22468;SDS011;11401;50.792;4.352;2023-05-01T08:24:58;23.55;;;16.85;;
22468;SDS011;11401;50.792;4.352;2023-05-01T08:27:25;23.55;;;19.77;;
22468;SDS011;11401;50.792;4.352;2023-05-01T08:29:52;26.40;;;20.15;;
22468;SDS011;11401;50.792;4.352;2023-05-01T08:32:19;26.48;;;19.38;;
22468;SDS011;11401;50.792;4.352;2023-05-01T08:34:47;21.73;;;17.35;;
22468;SDS011;11401;50.792;4.352;2023-05-01T08:37:14;24.40;;;19.83;;
22468;SDS011;11401;50.792;4.352;2023-05-01T08:39:41;25.15;;;19.45;;
22468;SDS011;11401;50.792;4.352;2023-05-01T08:42:08;24.25;;;19.75;;
22468;SDS011;11401;50.792;4.352;2023-05-01T08:44:37;28.63;;;20.80;;
22468;SDS011;11401;50.792;4.352;2023-05-01T08:47:06;27.60;;;21.77;;
22468;SDS011;11401;50.792;4.352;2023-05-01T08:49:41;27.50;;;21.73;;
22468;SDS011;11401;50.792;4.352;2023-05-01T08:52:10;28.33;;;20.13;;
22468;SDS011;11401;50.792;4.352;2023-05-01T08:54:38;28.17;;;21.50;;
22468;SDS011;11401;50.792;4.352;2023-05-01T08:57:09;25.17;;;19.17;;
22468;SDS011;11401;50.792;4.352;2023-05-01T08:59:38;25.70;;;19.75;;
22468;SDS011;11401;50.792;4.352;2023-05-01T09:02:07;28.98;;;22.25;;
22468;SDS011;11401;50.792;4.352;2023-05-01T09:04:38;29.83;;;22.25;;
22468;SDS011;11401;50.792;4.352;2023-05-01T09:07:06;24.67;;;20.23;;
22468;SDS011;11401;50.792;4.352;2023-05-01T09:09:35;19.25;;;14.80;;
22468;SDS011;11401;50.792;4.352;2023-05-01T09:14:36;25.10;;;19.45;;
22468;SDS011;11401;50.792;4.352;2023-05-01T09:17:03;26.33;;;19.35;;
22468;SDS011;11401;50.792;4.352;2023-05-01T09:19:30;26.60;;;19.65;;
22468;SDS011;11401;50.792;4.352;2023-05-01T09:21:57;29.35;;;19.75;;
22468;SDS011;11401;50.792;4.352;2023-05-01T09:24:25;28.40;;;22.27;;
22468;SDS011;11401;50.792;4.352;2023-05-01T09:26:52;28.45;;;22.33;;
22468;SDS011;11401;50.792;4.352;2023-05-01T09:32:20;34.17;;;24.08;;
22468;SDS011;11401;50.792;4.352;2023-05-01T09:34:54;30.73;;;22.20;;
22468;SDS011;11401;50.792;4.352;2023-05-01T09:37:34;31.77;;;22.67;;
22468;SDS011;11401;50.792;4.352;2023-05-01T09:40:10;30.83;;;22.83;;
22468;SDS011;11401;50.792;4.352;2023-05-01T09:42:51;31.77;;;22.98;;
22468;SDS011;11401;50.792;4.352;2023-05-01T09:45:18;33.72;;;23.73;;
22468;SDS011;11401;50.792;4.352;2023-05-01T09:47:46;37.85;;;26.33;;
22468;SDS011;11401;50.792;4.352;2023-05-01T09:50:32;31.38;;;22.50;;
22468;SDS011;11401;50.792;4.352;2023-05-01T09:53:00;30.77;;;22.80;;
22468;SDS011;11401;50.792;4.352;2023-05-01T09:55:30;31.83;;;22.40;;
22468;SDS011;11401;50.792;4.352;2023-05-01T09:57:57;31.33;;;23.52;;
22468;SDS011;11401;50.792;4.352;2023-05-01T10:00:24;30.27;;;22.85;;
22468;SDS011;11401;50.792;4.352;2023-05-01T10:02:52;21.83;;;16.45;;
22468;SDS011;11401;50.792;4.352;2023-05-01T10:05:19;34.50;;;24.40;;
22468;SDS011;11401;50.792;4.352;2023-05-01T10:08:06;32.38;;;23.60;;
22468;SDS011;11401;50.792;4.352;2023-05-01T10:10:35;33.30;;;22.08;;
22468;SDS011;11401;50.792;4.352;2023-05-01T10:13:11;30.08;;;23.08;;
22468;SDS011;11401;50.792;4.352;2023-05-01T10:15:43;29.48;;;20.38;;
22468;SDS011;11401;50.792;4.352;2023-05-01T10:18:13;31.02;;;21.20;;
22468;SDS011;11401;50.792;4.352;2023-05-01T10:20:40;24.40;;;17.23;;
22468;SDS011;11401;50.792;4.352;2023-05-01T10:23:08;24.58;;;17.58;;
22468;SDS011;11401;50.792;4.352;2023-05-01T10:25:36;26.00;;;18.00;;
22468;SDS011;11401;50.792;4.352;2023-05-01T10:28:04;25.27;;;19.35;;
22468;SDS011;11401;50.792;4.352;2023-05-01T10:30:31;28.55;;;16.90;;
22468;SDS011;11401;50.792;4.352;2023-05-01T10:33:01;19.42;;;16.20;;
22468;SDS011;11401;50.792;4.352;2023-05-01T10:35:31;18.02;;;13.95;;
22468;SDS011;11401;50.792;4.352;2023-05-01T10:38:04;22.85;;;17.67;;
22468;SDS011;11401;50.792;4.352;2023-05-01T10:43:38;16.80;;;12.77;;
22468;SDS011;11401;50.792;4.352;2023-05-01T10:51:17;7.88;;;5.43;;
22468;SDS011;11401;50.792;4.352;2023-05-01T10:53:47;7.72;;;5.47;;
22468;SDS011;11401;50.792;4.352;2023-05-01T10:59:02;18.55;;;16.25;;
22468;SDS011;11401;50.792;4.352;2023-05-01T11:01:33;21.95;;;17.30;;
22468;SDS011;11401;50.792;4.352;2023-05-01T11:04:03;23.70;;;14.02;;
22468;SDS011;11401;50.792;4.352;2023-05-01T11:09:43;21.25;;;14.63;;
22468;SDS011;11401;50.792;4.352;2023-05-01T11:12:18;21.23;;;15.73;;
22468;SDS011;11401;50.792;4.352;2023-05-01T11:15:11;17.88;;;14.23;;
22468;SDS011;11401;50.792;4.352;2023-05-01T11:20:06;20.25;;;16.08;;
22468;SDS011;11401;50.792;4.352;2023-05-01T11:22:34;19.42;;;15.57;;
22468;SDS011;11401;50.792;4.352;2023-05-01T11:25:02;18.92;;;15.05;;
22468;SDS011;11401;50.792;4.352;2023-05-01T11:27:32;17.98;;;13.68;;
22468;SDS011;11401;50.792;4.352;2023-05-01T11:29:59;19.38;;;15.15;;
22468;SDS011;11401;50.792;4.352;2023-05-01T11:32:26;20.67;;;13.90;;
22468;SDS011;11401;50.792;4.352;2023-05-01T11:34:55;14.20;;;12.18;;
22468;SDS011;11401;50.792;4.352;2023-05-01T11:37:39;16.38;;;13.13;;
22468;SDS011;11401;50.792;4.352;2023-05-01T11:42:50;16.30;;;11.55;;
22468;SDS011;11401;50.792;4.352;2023-05-01T11:45:31;17.50;;;11.50;;
22468;SDS011;11401;50.792;4.352;2023-05-01T11:47:59;12.23;;;9.38;;
22468;SDS011;11401;50.792;4.352;2023-05-01T11:50:34;11.73;;;8.85;;
22468;SDS011;11401;50.792;4.352;2023-05-01T11:53:05;14.10;;;9.65;;
22468;SDS011;11401;50.792;4.352;2023-05-01T11:55:43;16.33;;;9.82;;
22468;SDS011;11401;50.792;4.352;2023-05-01T11:58:10;10.57;;;9.35;;
22468;SDS011;11401;50.792;4.352;2023-05-01T12:00:39;9.10;;;7.05;;
22468;SDS011;11401;50.792;4.352;2023-05-01T12:03:08;12.35;;;8.98;;
22468;SDS011;11401;50.792;4.352;2023-05-01T12:05:38;10.60;;;7.93;;
22468;SDS011;11401;50.792;4.352;2023-05-01T12:08:15;12.60;;;8.43;;
22468;SDS011;11401;50.792;4.352;2023-05-01T12:10:54;12.23;;;9.02;;
22468;SDS011;11401;50.792;4.352;2023-05-01T12:13:22;12.20;;;8.90;;
22468;SDS011;11401;50.792;4.352;2023-05-01T12:15:50;11.30;;;8.75;;
22468;SDS011;11401;50.792;4.352;2023-05-01T12:18:19;11.55;;;9.02;;
22468;SDS011;11401;50.792;4.352;2023-05-01T12:20:47;14.05;;;7.85;;
22468;SDS011;11401;50.792;4.352;2023-05-01T12:23:18;9.55;;;7.28;;
22468;SDS011;11401;50.792;4.352;2023-05-01T12:25:54;12.77;;;9.63;;
22468;SDS011;11401;50.792;4.352;2023-05-01T12:28:22;12.05;;;9.35;;
22468;SDS011;11401;50.792;4.352;2023-05-01T12:30:53;11.55;;;9.98;;
22468;SDS011;11401;50.792;4.352;2023-05-01T12:33:30;13.27;;;10.27;;
22468;SDS011;11401;50.792;4.352;2023-05-01T12:36:07;10.85;;;8.45;;
22468;SDS011;11401;50.792;4.352;2023-05-01T12:38:37;14.43;;;10.48;;
22468;SDS011;11401;50.792;4.352;2023-05-01T12:41:04;10.60;;;8.32;;
22468;SDS011;11401;50.792;4.352;2023-05-01T12:43:34;12.20;;;9.88;;
22468;SDS011;11401;50.792;4.352;2023-05-01T12:46:03;15.25;;;8.95;;
22468;SDS011;11401;50.792;4.352;2023-05-01T12:48:31;6.25;;;5.45;;
22468;SDS011;11401;50.792;4.352;2023-05-01T12:50:59;12.43;;;9.88;;
22468;SDS011;11401;50.792;4.352;2023-05-01T12:53:27;16.23;;;11.05;;
22468;SDS011;11401;50.792;4.352;2023-05-01T12:55:55;8.50;;;7.20;;
22468;SDS011;11401;50.792;4.352;2023-05-01T12:58:48;9.82;;;8.77;;
22468;SDS011;11401;50.792;4.352;2023-05-01T13:01:11;14.57;;;10.63;;
22468;SDS011;11401;50.792;4.352;2023-05-01T13:03:41;10.18;;;8.80;;
22468;SDS011;11401;50.792;4.352;2023-05-01T13:06:09;16.23;;;11.10;;
22468;SDS011;11401;50.792;4.352;2023-05-01T13:08:37;13.55;;;10.35;;
22468;SDS011;11401;50.792;4.352;2023-05-01T13:11:09;16.83;;;12.93;;
22468;SDS011;11401;50.792;4.352;2023-05-01T13:13:38;14.95;;;11.35;;
22468;SDS011;11401;50.792;4.352;2023-05-01T13:16:07;12.52;;;10.82;;
22468;SDS011;11401;50.792;4.352;2023-05-01T13:18:41;17.95;;;11.55;;
22468;SDS011;11401;50.792;4.352;2023-05-01T13:21:12;15.65;;;12.52;;
22468;SDS011;11401;50.792;4.352;2023-05-01T13:23:42;16.70;;;12.85;;
22468;SDS011;11401;50.792;4.352;2023-05-01T13:26:23;14.20;;;10.90;;
22468;SDS011;11401;50.792;4.352;2023-05-01T13:28:52;9.38;;;7.25;;
22468;SDS011;11401;50.792;4.352;2023-05-01T13:31:20;5.75;;;5.03;;
22468;SDS011;11401;50.792;4.352;2023-05-01T13:33:51;9.95;;;8.05;;
22468;SDS011;11401;50.792;4.352;2023-05-01T13:36:20;8.32;;;7.05;;
22468;SDS011;11401;50.792;4.352;2023-05-01T13:38:52;6.85;;;6.07;;
22468;SDS011;11401;50.792;4.352;2023-05-01T13:41:25;15.70;;;12.32;;
22468;SDS011;11401;50.792;4.352;2023-05-01T13:43:54;18.10;;;12.35;;
22468;SDS011;11401;50.792;4.352;2023-05-01T13:46:22;12.25;;;10.68;;
22468;SDS011;11401;50.792;4.352;2023-05-01T13:48:51;19.15;;;12.27;;
22468;SDS011;11401;50.792;4.352;2023-05-01T13:51:19;18.17;;;13.75;;
22468;SDS011;11401;50.792;4.352;2023-05-01T13:53:47;15.52;;;11.85;;
22468;SDS011;11401;50.792;4.352;2023-05-01T13:56:14;14.45;;;9.98;;
22468;SDS011;11401;50.792;4.352;2023-05-01T13:58:42;15.13;;;11.50;;
22468;SDS011;11401;50.792;4.352;2023-05-01T14:01:15;17.80;;;13.50;;
22468;SDS011;11401;50.792;4.352;2023-05-01T14:03:44;15.52;;;10.20;;
22468;SDS011;11401;50.792;4.352;2023-05-01T14:06:12;11.50;;;9.00;;
22468;SDS011;11401;50.792;4.352;2023-05-01T14:08:40;13.93;;;11.15;;
22468;SDS011;11401;50.792;4.352;2023-05-01T14:11:08;16.95;;;11.77;;
22468;SDS011;11401;50.792;4.352;2023-05-01T14:13:39;9.32;;;8.25;;
22468;SDS011;11401;50.792;4.352;2023-05-01T14:16:08;15.77;;;9.77;;
22468;SDS011;11401;50.792;4.352;2023-05-01T14:18:44;8.93;;;7.68;;
22468;SDS011;11401;50.792;4.352;2023-05-01T14:21:15;13.60;;;9.73;;
22468;SDS011;11401;50.792;4.352;2023-05-01T14:23:44;11.55;;;9.30;;
22468;SDS011;11401;50.792;4.352;2023-05-01T14:26:16;14.40;;;10.30;;
22468;SDS011;11401;50.792;4.352;2023-05-01T14:28:44;10.15;;;7.82;;
22468;SDS011;11401;50.792;4.352;2023-05-01T14:31:22;10.93;;;8.65;;
22468;SDS011;11401;50.792;4.352;2023-05-01T14:33:51;13.80;;;11.15;;
22468;SDS011;11401;50.792;4.352;2023-05-01T14:36:21;11.52;;;9.52;;
22468;SDS011;11401;50.792;4.352;2023-05-01T14:38:49;7.85;;;6.82;;
22468;SDS011;11401;50.792;4.352;2023-05-01T14:41:17;12.60;;;10.13;;
22468;SDS011;11401;50.792;4.352;2023-05-01T14:43:46;7.95;;;7.22;;
22468;SDS011;11401;50.792;4.352;2023-05-01T14:46:17;8.32;;;6.65;;
22468;SDS011;11401;50.792;4.352;2023-05-01T14:48:59;15.32;;;10.63;;
22468;SDS011;11401;50.792;4.352;2023-05-01T14:51:27;15.52;;;10.25;;
22468;SDS011;11401;50.792;4.352;2023-05-01T14:53:57;17.58;;;11.50;;
22468;SDS011;11401;50.792;4.352;2023-05-01T14:56:25;10.70;;;8.40;;
22468;SDS011;11401;50.792;4.352;2023-05-01T14:58:52;8.88;;;7.70;;
22468;SDS011;11401;50.792;4.352;2023-05-01T15:01:19;9.00;;;7.28;;
22468;SDS011;11401;50.792;4.352;2023-05-01T15:03:47;9.48;;;7.97;;
22468;SDS011;11401;50.792;4.352;2023-05-01T15:06:14;10.00;;;8.13;;
22468;SDS011;11401;50.792;4.352;2023-05-01T15:08:42;13.35;;;10.45;;
22468;SDS011;11401;50.792;4.352;2023-05-01T15:11:11;13.70;;;8.95;;
22468;SDS011;11401;50.792;4.352;2023-05-01T15:13:39;12.52;;;8.55;;
22468;SDS011;11401;50.792;4.352;2023-05-01T15:16:08;12.75;;;8.32;;
22468;SDS011;11401;50.792;4.352;2023-05-01T15:18:36;12.27;;;8.23;;
22468;SDS011;11401;50.792;4.352;2023-05-01T15:21:03;11.75;;;8.73;;
22468;SDS011;11401;50.792;4.352;2023-05-01T15:23:31;10.95;;;8.45;;
22468;SDS011;11401;50.792;4.352;2023-05-01T15:25:58;10.75;;;8.73;;
22468;SDS011;11401;50.792;4.352;2023-05-01T15:28:26;9.88;;;8.40;;
22468;SDS011;11401;50.792;4.352;2023-05-01T15:30:54;8.43;;;7.53;;
22468;SDS011;11401;50.792;4.352;2023-05-01T15:33:21;11.55;;;7.35;;